Time;durP1;ratioP1;P1;durP2;ratioP2;P2;SDS_P1;SDS_P2;PMS_P1;PMS_P2;Temp;Humidity;BMP_temperature;BMP_pressure;BME280_temperature;BME280_humidity;BME280_pressure;Samples;Min_cycle;Max_cycle;Signal;HPM_P1;HPM_P2
2021/05/16 00:00:49;;;;;;;1.20;1.00;;;11.10;98.00;;;;;;5090586;28;20470;-73
2021/05/16 00:03:17;;;;;;;1.20;0.90;;;11.10;98.00;;;;;;5090471;28;20464;-73
2021/05/16 00:05:44;;;;;;;1.20;0.90;;;11.10;98.00;;;;;;5090188;28;20506;-73
2021/05/16 00:08:11;;;;;;;1.20;1.00;;;11.10;98.00;;;;;;5091772;28;20971;-73
2021/05/16 00:10:37;;;;;;;1.20;0.90;;;11.10;98.00;;;;;;5089199;28;20447;-73
2021/05/16 00:13:04;;;;;;;1.20;1.00;;;11.20;98.00;;;;;;5090389;28;20938;-72
2021/05/16 00:15:31;;;;;;;1.20;0.90;;;11.20;98.00;;;;;;5089204;28;20978;-73
2021/05/16 00:17:58;;;;;;;1.20;1.00;;;11.10;98.00;;;;;;5091853;28;20478;-73
2021/05/16 00:20:28;;;;;;;1.20;0.90;;;11.00;98.00;;;;;;5088786;28;20449;-73
2021/05/16 00:22:55;;;;;;;1.20;0.97;;;11.10;98.00;;;;;;5091771;28;20457;-73
2021/05/16 00:25:22;;;;;;;1.20;0.90;;;11.10;98.00;;;;;;5089008;28;20695;-73
2021/05/16 00:27:49;;;;;;;1.20;1.00;;;11.10;98.00;;;;;;5091647;28;20475;-73
2021/05/16 00:30:19;;;;;;;1.20;1.00;;;11.20;98.00;;;;;;5088791;28;20455;-73
2021/05/16 00:32:46;;;;;;;1.20;1.00;;;11.20;98.00;;;;;;5090432;28;20984;-73
2021/05/16 00:35:15;;;;;;;1.20;0.90;;;11.20;98.00;;;;;;5091084;28;20584;-73
2021/05/16 00:37:42;;;;;;;1.20;0.90;;;11.20;98.00;;;;;;5095630;28;20460;-73
2021/05/16 00:40:10;;;;;;;1.20;1.00;;;11.20;98.00;;;;;;5093254;28;20788;-72
2021/05/16 00:42:37;;;;;;;1.20;0.90;;;11.30;98.00;;;;;;5094783;28;20501;-73
2021/05/16 00:45:07;;;;;;;2.33;1.30;;;11.30;98.00;;;;;;5092764;28;20477;-73
2021/05/16 00:47:34;;;;;;;1.20;0.90;;;11.20;98.00;;;;;;5095391;28;20552;-72
2021/05/16 00:50:01;;;;;;;1.20;1.00;;;11.20;98.00;;;;;;5092717;28;20984;-73
2021/05/16 00:52:27;;;;;;;1.20;0.90;;;11.20;98.00;;;;;;5095218;28;20459;-73
2021/05/16 00:54:55;;;;;;;1.40;1.00;;;11.20;98.00;;;;;;5092435;28;20465;-73
2021/05/16 00:57:23;;;;;;;1.20;1.10;;;11.20;98.00;;;;;;5095214;28;20497;-73
2021/05/16 00:59:49;;;;;;;1.20;1.00;;;11.30;98.00;;;;;;5092748;28;20468;-73
2021/05/16 01:02:17;;;;;;;1.20;1.00;;;11.30;98.00;;;;;;5095212;28;20965;-73
2021/05/16 01:04:47;;;;;;;1.20;0.90;;;11.30;98.00;;;;;;5091808;28;20488;-73
2021/05/16 01:07:13;;;;;;;1.20;1.00;;;11.30;98.00;;;;;;5094387;28;20530;-73
2021/05/16 01:09:40;;;;;;;1.20;1.00;;;11.20;98.00;;;;;;5090360;28;20491;-73
2021/05/16 01:12:08;;;;;;;1.20;1.00;;;11.20;98.00;;;;;;5093488;28;20460;-73
2021/05/16 01:14:40;;;;;;;1.20;1.00;;;11.20;98.00;;;;;;5090933;28;20516;-73
2021/05/16 01:17:07;;;;;;;1.20;1.00;;;11.20;98.00;;;;;;5094934;28;20592;-73
2021/05/16 01:19:37;;;;;;;1.20;0.90;;;11.20;98.00;;;;;;5092247;28;20817;-73
2021/05/16 01:22:06;;;;;;;1.20;1.00;;;11.20;98.00;;;;;;5094790;28;20466;-73
2021/05/16 01:24:34;;;;;;;1.20;0.90;;;11.10;98.00;;;;;;5090514;28;20545;-73
2021/05/16 01:27:02;;;;;;;1.20;0.90;;;11.10;98.00;;;;;;5094663;28;20463;-73
2021/05/16 01:29:28;;;;;;;1.20;0.90;;;11.10;98.00;;;;;;5090759;28;20456;-73
2021/05/16 01:31:55;;;;;;;1.20;0.90;;;11.10;98.00;;;;;;5093282;28;20633;-73
2021/05/16 01:34:22;;;;;;;1.20;0.90;;;11.10;98.00;;;;;;5092045;28;20454;-73
2021/05/16 01:36:49;;;;;;;1.20;0.90;;;11.10;98.00;;;;;;5094276;28;20459;-73
2021/05/16 01:39:16;;;;;;;1.20;0.90;;;11.10;98.00;;;;;;5091259;28;20478;-74
2021/05/16 01:41:43;;;;;;;1.20;1.00;;;11.10;98.00;;;;;;5094192;28;20460;-73
2021/05/16 01:44:12;;;;;;;1.20;1.00;;;11.10;98.00;;;;;;5091518;28;20448;-73
2021/05/16 01:46:43;;;;;;;1.20;0.90;;;11.00;98.00;;;;;;5091841;28;20525;-73
2021/05/16 01:49:10;;;;;;;1.20;1.00;;;10.90;98.00;;;;;;5091047;28;20578;-73
2021/05/16 01:51:37;;;;;;;1.20;0.90;;;10.90;98.00;;;;;;5093922;28;21221;-73
2021/05/16 01:54:06;;;;;;;1.20;0.90;;;10.90;98.00;;;;;;5091506;28;20448;-73
2021/05/16 01:56:33;;;;;;;1.20;0.97;;;10.80;98.00;;;;;;5093822;28;20463;-73
2021/05/16 01:59:00;;;;;;;1.20;1.00;;;10.90;98.00;;;;;;5091543;28;20472;-73
2021/05/16 02:01:29;;;;;;;1.20;0.90;;;10.80;98.00;;;;;;5093283;28;20468;-73
2021/05/16 02:03:55;;;;;;;1.20;1.00;;;10.90;98.00;;;;;;5091557;28;20549;-73
2021/05/16 02:06:22;;;;;;;1.20;0.90;;;10.90;98.00;;;;;;5093866;28;20482;-73
2021/05/16 02:08:49;;;;;;;1.20;1.00;;;10.90;98.00;;;;;;5090901;28;20457;-73
2021/05/16 02:11:15;;;;;;;1.20;0.90;;;11.00;98.00;;;;;;5093691;28;20474;-73
2021/05/16 02:13:44;;;;;;;5.00;1.30;;;11.00;98.00;;;;;;5091263;28;20464;-73
2021/05/16 02:16:12;;;;;;;1.20;1.00;;;11.00;98.00;;;;;;5093549;28;20480;-73
2021/05/16 02:18:42;;;;;;;1.20;1.00;;;11.00;98.00;;;;;;5091150;28;20504;-74
2021/05/16 02:21:11;;;;;;;1.20;0.90;;;11.10;98.00;;;;;;5092348;28;20464;-73
2021/05/16 02:23:40;;;;;;;1.20;1.00;;;11.10;98.00;;;;;;5091347;28;20495;-73
2021/05/16 02:26:06;;;;;;;1.20;1.00;;;11.00;98.00;;;;;;5093407;28;20481;-73
2021/05/16 02:28:33;;;;;;;1.20;0.90;;;11.10;98.00;;;;;;5091145;28;21057;-73
2021/05/16 02:31:10;;;;;;;1.20;0.90;;;11.10;98.00;;;;;;5091708;28;20462;-73
2021/05/16 02:33:39;;;;;;;1.20;0.90;;;11.10;98.00;;;;;;5090922;28;20470;-74
2021/05/16 02:36:05;;;;;;;1.30;1.00;;;11.10;98.00;;;;;;5093216;28;20460;-74
2021/05/16 02:38:32;;;;;;;1.20;1.00;;;11.10;98.00;;;;;;5091918;28;20589;-73
2021/05/16 02:40:59;;;;;;;1.20;0.90;;;11.10;98.00;;;;;;5093091;28;20461;-73
2021/05/16 02:43:25;;;;;;;1.20;1.10;;;11.10;98.00;;;;;;5093135;28;20552;-73
2021/05/16 02:45:51;;;;;;;1.20;1.00;;;11.20;98.00;;;;;;5090217;28;20999;-73
2021/05/16 02:48:19;;;;;;;1.20;0.90;;;11.10;98.00;;;;;;5092934;28;20450;-74
2021/05/16 02:50:45;;;;;;;1.20;1.00;;;11.10;98.00;;;;;;5090379;28;20494;-73
2021/05/16 02:53:13;;;;;;;1.20;0.90;;;11.10;98.00;;;;;;5093050;28;20458;-73
2021/05/16 02:55:41;;;;;;;1.20;0.90;;;11.10;98.00;;;;;;5090478;28;20462;-73
2021/05/16 02:58:08;;;;;;;1.20;1.00;;;11.10;98.00;;;;;;5091721;28;20447;-73
2021/05/16 03:00:36;;;;;;;1.20;0.90;;;11.20;98.00;;;;;;5090512;28;20508;-73
2021/05/16 03:03:02;;;;;;;1.20;0.90;;;11.20;98.00;;;;;;5092742;28;20464;-73
2021/05/16 03:05:30;;;;;;;1.20;0.90;;;11.10;98.00;;;;;;5089799;28;20526;-73
2021/05/16 03:07:57;;;;;;;1.20;1.00;;;11.10;98.00;;;;;;5092896;28;20506;-73
2021/05/16 03:10:24;;;;;;;1.20;0.90;;;11.10;98.00;;;;;;5090658;28;20795;-73
2021/05/16 03:12:50;;;;;;;1.20;0.90;;;11.00;98.00;;;;;;5092999;28;20448;-73
2021/05/16 03:15:17;;;;;;;1.20;0.97;;;11.00;98.00;;;;;;5090083;28;20453;-73
2021/05/16 03:17:45;;;;;;;1.20;1.00;;;11.00;98.00;;;;;;5091420;28;20477;-73
2021/05/16 03:20:13;;;;;;;1.20;0.90;;;11.00;98.00;;;;;;5090516;28;20501;-73
2021/05/16 03:22:40;;;;;;;1.20;0.90;;;11.10;98.00;;;;;;5092356;28;20522;-73
2021/05/16 03:25:09;;;;;;;1.20;0.90;;;11.00;98.00;;;;;;5088808;28;20900;-73
2021/05/16 03:27:36;;;;;;;1.20;0.90;;;11.00;98.00;;;;;;5092443;28;20452;-73
2021/05/16 03:30:05;;;;;;;1.20;0.97;;;11.00;98.00;;;;;;5089754;28;20465;-73
2021/05/16 03:32:32;;;;;;;1.20;0.90;;;11.00;98.00;;;;;;5092503;28;20454;-73
2021/05/16 03:34:59;;;;;;;1.20;1.00;;;10.90;98.00;;;;;;5089927;28;20454;-74
2021/05/16 03:37:25;;;;;;;1.20;1.00;;;10.90;98.00;;;;;;5092168;28;20455;-73
2021/05/16 03:39:54;;;;;;;1.20;1.00;;;10.90;98.00;;;;;;5089296;28;20854;-73
2021/05/16 03:42:21;;;;;;;1.20;0.90;;;10.90;98.00;;;;;;5092401;28;20464;-74
2021/05/16 03:44:53;;;;;;;1.20;0.90;;;10.90;98.00;;;;;;5088537;28;20467;-73
2021/05/16 03:47:19;;;;;;;1.20;0.90;;;10.80;98.00;;;;;;5092321;28;20471;-73
2021/05/16 03:49:46;;;;;;;1.20;0.90;;;10.80;98.00;;;;;;5089532;28;20964;-73
2021/05/16 03:52:13;;;;;;;1.20;0.90;;;10.60;98.00;;;;;;5092319;28;20490;-73
2021/05/16 03:54:40;;;;;;;1.20;0.90;;;10.50;98.00;;;;;;5089737;28;20444;-73
2021/05/16 03:57:07;;;;;;;1.20;1.00;;;10.50;98.00;;;;;;5090986;28;20569;-73
2021/05/16 03:59:34;;;;;;;1.20;1.00;;;10.60;98.00;;;;;;5087776;28;20456;-73
2021/05/16 04:02:01;;;;;;;1.37;1.10;;;10.60;98.00;;;;;;5092169;28;20512;-74
2021/05/16 04:04:27;;;;;;;1.20;0.90;;;10.60;98.00;;;;;;5089561;28;20529;-73
2021/05/16 04:06:54;;;;;;;1.20;1.00;;;10.70;98.00;;;;;;5091933;28;20536;-73
2021/05/16 04:09:20;;;;;;;1.20;0.90;;;10.70;98.00;;;;;;5088771;28;20473;-73
2021/05/16 04:11:47;;;;;;;1.20;0.90;;;10.60;98.00;;;;;;5091730;28;20971;-73
2021/05/16 04:14:16;;;;;;;1.20;1.00;;;10.50;98.00;;;;;;5087946;28;20449;-73
2021/05/16 04:16:42;;;;;;;1.20;0.90;;;10.60;98.00;;;;;;5091732;28;20479;-74
2021/05/16 04:19:10;;;;;;;1.20;0.90;;;10.70;98.00;;;;;;5089021;28;20457;-73
2021/05/16 04:21:37;;;;;;;1.27;1.03;;;10.70;98.00;;;;;;5091748;28;20448;-73
2021/05/16 04:24:15;;;;;;;1.20;0.93;;;10.70;98.00;;;;;;5087685;28;20462;-74
2021/05/16 04:26:41;;;;;;;1.20;0.90;;;10.80;98.00;;;;;;5091505;28;20478;-73
2021/05/16 04:29:16;;;;;;;1.20;1.00;;;10.80;98.00;;;;;;5089182;28;20463;-73
2021/05/16 04:31:43;;;;;;;1.20;0.90;;;10.90;98.00;;;;;;5090050;28;20588;-74
2021/05/16 04:34:09;;;;;;;1.20;1.00;;;11.00;98.00;;;;;;5088685;28;20470;-73
2021/05/16 04:36:36;;;;;;;1.30;1.10;;;11.00;98.00;;;;;;5091683;28;20478;-73
2021/05/16 04:39:03;;;;;;;1.20;0.90;;;11.00;98.00;;;;;;5088959;28;21404;-74
2021/05/16 04:41:32;;;;;;;1.50;1.00;;;11.10;98.00;;;;;;5091637;28;20516;-74
2021/05/16 04:43:59;;;;;;;1.20;0.90;;;11.10;98.00;;;;;;5089333;28;20454;-74
2021/05/16 04:46:25;;;;;;;1.40;1.10;;;11.10;98.00;;;;;;5091663;28;20517;-74
2021/05/16 04:48:53;;;;;;;1.20;1.00;;;11.00;98.00;;;;;;5088066;28;20468;-74
2021/05/16 04:51:19;;;;;;;1.20;0.90;;;11.00;98.00;;;;;;5091653;28;20461;-73
2021/05/16 04:53:48;;;;;;;1.20;1.00;;;11.10;98.00;;;;;;5090369;28;20515;-73
2021/05/16 04:56:15;;;;;;;1.20;1.00;;;11.00;98.00;;;;;;5091657;28;20462;-73
2021/05/16 04:58:41;;;;;;;1.20;0.90;;;10.90;98.00;;;;;;5091503;28;20453;-73
2021/05/16 05:01:08;;;;;;;1.20;1.00;;;11.00;98.00;;;;;;5089427;28;20846;-74
2021/05/16 05:03:35;;;;;;;1.30;1.13;;;10.90;98.00;;;;;;5091443;28;20795;-74
2021/05/16 05:06:02;;;;;;;1.40;1.10;;;10.80;98.00;;;;;;5087159;28;20523;-74
2021/05/16 05:08:30;;;;;;;1.20;0.97;;;10.90;98.00;;;;;;5091460;28;20454;-74
2021/05/16 05:10:58;;;;;;;1.20;1.00;;;10.90;98.00;;;;;;5087709;28;21069;-73
2021/05/16 05:13:25;;;;;;;1.20;0.90;;;11.00;98.00;;;;;;5091074;28;20470;-74
2021/05/16 05:15:54;;;;;;;1.20;0.90;;;10.90;98.00;;;;;;5088675;28;20533;-74
2021/05/16 05:18:21;;;;;;;1.20;1.00;;;11.00;98.00;;;;;;5091229;28;20454;-74
2021/05/16 05:20:51;;;;;;;1.20;1.00;;;11.00;98.00;;;;;;5088684;28;20974;-73
2021/05/16 05:23:18;;;;;;;1.20;0.90;;;11.00;98.00;;;;;;5094638;28;20462;-73
2021/05/16 05:25:46;;;;;;;1.20;0.90;;;11.00;98.00;;;;;;5092023;28;20491;-73
2021/05/16 05:28:12;;;;;;;1.20;1.00;;;11.20;98.00;;;;;;5094825;28;20458;-73
2021/05/16 05:30:39;;;;;;;1.20;0.90;;;11.40;98.00;;;;;;5091791;28;21079;-73
2021/05/16 05:33:06;;;;;;;1.20;0.90;;;11.40;98.00;;;;;;5094667;28;20463;-74
2021/05/16 05:35:34;;;;;;;1.20;0.90;;;11.40;98.00;;;;;;5092440;28;20551;-73
2021/05/16 05:38:01;;;;;;;1.20;1.00;;;11.40;98.00;;;;;;5094714;28;20483;-73
2021/05/16 05:40:28;;;;;;;1.20;1.10;;;11.40;98.00;;;;;;5092664;28;20464;-73
2021/05/16 05:42:55;;;;;;;1.40;1.10;;;11.40;98.00;;;;;;5094468;28;20474;-74
2021/05/16 05:45:23;;;;;;;1.20;0.90;;;11.40;98.00;;;;;;5092333;28;20491;-73
2021/05/16 05:47:49;;;;;;;1.20;0.90;;;11.40;98.00;;;;;;5094736;28;20931;-73
2021/05/16 05:50:16;;;;;;;1.20;0.90;;;11.40;98.00;;;;;;5091478;28;20511;-73
2021/05/16 05:52:42;;;;;;;1.20;0.90;;;11.40;98.00;;;;;;5094376;28;20510;-74
2021/05/16 05:55:10;;;;;;;1.20;0.90;;;11.50;98.00;;;;;;5091879;28;20474;-74
2021/05/16 05:57:37;;;;;;;1.20;0.90;;;11.50;98.00;;;;;;5094192;28;20771;-73
2021/05/16 06:00:05;;;;;;;1.20;1.00;;;11.50;98.00;;;;;;5091229;28;20487;-73
2021/05/16 06:02:32;;;;;;;1.20;0.90;;;11.50;98.00;;;;;;5094123;28;20543;-73
2021/05/16 06:04:59;;;;;;;1.20;0.90;;;11.50;98.00;;;;;;5091278;28;20997;-73
2021/05/16 06:07:26;;;;;;;1.20;0.97;;;11.40;98.00;;;;;;5094213;28;20466;-72
2021/05/16 06:09:52;;;;;;;1.20;0.90;;;11.40;98.00;;;;;;5091335;28;20461;-73
2021/05/16 06:12:19;;;;;;;1.20;0.90;;;11.40;98.00;;;;;;5092808;28;20451;-73
2021/05/16 06:14:49;;;;;;;1.20;0.90;;;11.40;98.00;;;;;;5091523;28;20463;-73
2021/05/16 06:17:15;;;;;;;1.20;0.90;;;11.40;98.00;;;;;;5093698;28;20462;-73
2021/05/16 06:19:42;;;;;;;1.30;1.07;;;11.30;98.00;;;;;;5090692;28;20456;-73
2021/05/16 06:22:13;;;;;;;1.20;0.90;;;11.40;98.00;;;;;;5093717;28;20482;-73
2021/05/16 06:24:40;;;;;;;1.20;1.00;;;11.40;98.00;;;;;;5089459;28;20493;-73
2021/05/16 06:27:06;;;;;;;1.20;0.90;;;11.40;98.00;;;;;;5093636;28;20486;-73
2021/05/16 06:29:34;;;;;;;1.20;0.97;;;11.50;98.00;;;;;;5091020;28;20462;-73
2021/05/16 06:32:01;;;;;;;1.40;1.10;;;11.60;98.00;;;;;;5093202;28;20587;-73
2021/05/16 06:34:28;;;;;;;1.30;0.90;;;11.60;98.00;;;;;;5089482;28;20461;-73
2021/05/16 06:36:55;;;;;;;1.20;0.90;;;11.60;98.00;;;;;;5093615;28;20493;-73
2021/05/16 06:39:21;;;;;;;1.20;1.00;;;11.70;98.00;;;;;;5091015;28;20886;-73
2021/05/16 06:41:48;;;;;;;1.20;1.00;;;11.80;98.00;;;;;;5093383;28;20449;-73
2021/05/16 06:44:14;;;;;;;1.20;0.90;;;11.90;98.00;;;;;;5090589;28;20516;-74
2021/05/16 06:46:41;;;;;;;1.20;1.00;;;12.00;98.00;;;;;;5093052;28;20522;-73
2021/05/16 06:49:09;;;;;;;1.20;1.00;;;12.00;98.00;;;;;;5090480;28;20981;-73
2021/05/16 06:51:38;;;;;;;1.20;0.90;;;12.20;98.00;;;;;;5093122;28;20455;-73
2021/05/16 06:54:06;;;;;;;4.87;1.43;;;12.30;98.00;;;;;;5090344;28;20460;-73
2021/05/16 06:56:32;;;;;;;1.20;0.90;;;12.40;98.00;;;;;;5092984;28;20543;-74
2021/05/16 06:58:59;;;;;;;1.20;0.90;;;12.50;98.00;;;;;;5091052;28;20453;-74
2021/05/16 07:01:25;;;;;;;1.20;0.90;;;12.50;98.00;;;;;;5092566;28;20477;-73
2021/05/16 07:03:52;;;;;;;1.20;0.90;;;12.50;98.00;;;;;;5092676;28;20842;-73
2021/05/16 07:06:19;;;;;;;1.20;0.90;;;12.50;98.00;;;;;;5089964;28;20981;-73
2021/05/16 07:08:47;;;;;;;1.20;1.00;;;12.60;98.00;;;;;;5092566;28;20462;-74
2021/05/16 07:11:13;;;;;;;1.20;0.90;;;12.60;98.00;;;;;;5089960;28;20514;-74
2021/05/16 07:13:40;;;;;;;1.20;1.00;;;12.60;98.00;;;;;;5092529;28;20452;-73
2021/05/16 07:16:07;;;;;;;1.20;0.90;;;12.60;98.00;;;;;;5090272;28;20455;-73
2021/05/16 07:18:33;;;;;;;1.20;0.90;;;12.70;98.00;;;;;;5092178;28;20470;-72
2021/05/16 07:21:00;;;;;;;1.20;0.90;;;12.80;98.00;;;;;;5089104;28;20467;-73
2021/05/16 07:23:27;;;;;;;1.20;0.90;;;12.80;98.00;;;;;;5092032;28;20452;-73
2021/05/16 07:25:54;;;;;;;1.20;0.97;;;12.90;98.00;;;;;;5089070;28;20487;-73
2021/05/16 07:28:21;;;;;;;1.20;0.90;;;12.90;98.00;;;;;;5092510;28;20462;-73
2021/05/16 07:30:47;;;;;;;1.20;1.00;;;13.00;98.00;;;;;;5089548;28;20612;-73
2021/05/16 07:33:14;;;;;;;1.30;1.00;;;13.10;98.00;;;;;;5092280;28;20524;-74
2021/05/16 07:35:40;;;;;;;1.20;0.90;;;13.30;98.00;;;;;;5089765;28;20460;-74
2021/05/16 07:38:07;;;;;;;1.20;1.00;;;13.40;98.00;;;;;;5092169;28;20452;-74
2021/05/16 07:40:37;;;;;;;1.20;0.90;;;13.60;98.00;;;;;;5089222;28;20862;-75
2021/05/16 07:43:04;;;;;;;1.20;1.00;;;13.60;98.00;;;;;;5091996;28;20448;-74
2021/05/16 07:45:31;;;;;;;1.20;1.00;;;13.80;98.00;;;;;;5088919;28;20485;-74
2021/05/16 07:47:57;;;;;;;1.20;0.90;;;13.90;98.00;;;;;;5091833;28;20470;-74
2021/05/16 07:50:24;;;;;;;1.20;1.00;;;14.00;98.00;;;;;;5088023;28;20527;-74
2021/05/16 07:52:50;;;;;;;1.20;1.00;;;14.10;98.00;;;;;;5090730;28;20791;-74
2021/05/16 07:55:18;;;;;;;1.20;0.90;;;14.10;98.00;;;;;;5088093;28;20458;-74
2021/05/16 07:57:45;;;;;;;1.20;1.00;;;14.10;98.00;;;;;;5090004;28;21171;-74
2021/05/16 08:24:14;;;;;;;1.20;1.00;;;15.30;98.00;;;;;;5149094;27;20312;-74
2021/05/16 08:26:41;;;;;;;1.30;1.10;;;15.40;98.00;;;;;;5126847;28;20503;-71
2021/05/16 08:29:08;;;;;;;1.20;0.90;;;15.60;98.00;;;;;;5129149;28;20951;-72
2021/05/16 08:31:35;;;;;;;1.20;1.00;;;15.50;98.00;;;;;;5126993;28;20533;-73
2021/05/16 08:34:04;;;;;;;1.20;1.00;;;15.40;98.00;;;;;;5129176;28;20449;-72
2021/05/16 08:37:13;;;;;;;1.30;0.80;;;15.20;98.00;;;;;;5017599;27;3676427;-71
2021/05/16 08:39:42;;;;;;;1.20;1.00;;;15.10;97.20;;;;;;5126812;28;20661;-72
2021/05/16 12:16:41;;;;;;;1.20;1.10;;;20.00;76.10;;;;;;5147607;27;20766;-72
2021/05/16 12:19:08;;;;;;;1.20;1.10;;;20.40;72.30;;;;;;5127200;28;20454;-73
2021/05/16 12:21:36;;;;;;;1.20;1.00;;;20.70;71.60;;;;;;5126707;28;20958;-73
2021/05/16 12:24:05;;;;;;;8.50;1.17;;;21.20;69.10;;;;;;5128521;28;20452;-73
2021/05/16 12:26:34;;;;;;;1.50;1.30;;;21.50;70.60;;;;;;5127007;28;20454;-74
2021/05/16 12:29:01;;;;;;;1.20;1.10;;;21.60;68.20;;;;;;5128793;27;20456;-73
2021/05/16 12:31:29;;;;;;;1.30;1.20;;;21.90;71.50;;;;;;5126603;28;20480;-73
2021/05/16 12:34:02;;;;;;;1.20;1.10;;;22.10;67.70;;;;;;5128819;28;20604;-74
2021/05/16 12:36:29;;;;;;;1.20;1.00;;;22.10;72.20;;;;;;5126630;28;20526;-73
2021/05/16 12:38:56;;;;;;;1.20;1.10;;;22.30;66.70;;;;;;5129221;27;20464;-74
2021/05/16 12:41:25;;;;;;;1.30;1.20;;;22.20;67.40;;;;;;5127636;28;20537;-72
2021/05/16 12:44:06;;;;;;;1.20;1.10;;;22.10;66.60;;;;;;5127098;28;20485;-72
2021/05/16 12:46:48;;;;;;;1.20;1.00;;;21.50;65.30;;;;;;5127582;28;20453;-71
2021/05/16 12:49:20;;;;;;;1.20;1.10;;;21.30;69.30;;;;;;5128270;28;20458;-71
2021/05/16 12:51:57;;;;;;;1.20;1.07;;;21.10;68.30;;;;;;5126444;28;20450;-73
2021/05/16 12:54:26;;;;;;;1.53;1.20;;;20.80;65.60;;;;;;5127961;28;20446;-74
2021/05/16 12:57:02;;;;;;;1.20;1.10;;;20.60;69.40;;;;;;5125744;27;20931;-72
2021/05/16 12:59:31;;;;;;;1.57;1.20;;;20.30;72.20;;;;;;5127661;28;20469;-73
2021/05/16 13:02:09;;;;;;;1.20;1.00;;;20.20;72.80;;;;;;5126005;27;20450;-73
2021/05/16 13:04:48;;;;;;;1.20;1.00;;;20.20;72.80;;;;;;5127756;27;20446;-73
2021/05/16 13:07:30;;;;;;;1.20;1.00;;;20.00;70.00;;;;;;5125960;27;20450;-73
2021/05/16 13:09:57;;;;;;;1.20;1.10;;;19.80;71.40;;;;;;5124972;28;20499;-74
2021/05/16 13:12:25;;;;;;;1.20;1.10;;;19.80;73.20;;;;;;5128001;27;20473;-74
2021/05/16 13:14:53;;;;;;;1.50;1.07;;;19.50;72.50;;;;;;5127955;27;21014;-75
2021/05/16 13:17:20;;;;;;;1.20;1.00;;;19.40;72.70;;;;;;5126709;27;20465;-74
2021/05/16 13:19:51;;;;;;;1.20;1.10;;;19.40;73.00;;;;;;5127961;27;20454;-75
2021/05/16 13:22:34;;;;;;;1.27;1.10;;;19.30;73.20;;;;;;5124449;28;20458;-74
2021/05/16 13:25:01;;;;;;;1.20;1.00;;;19.30;74.80;;;;;;5125763;27;20478;-74
2021/05/16 13:27:27;;;;;;;1.20;1.10;;;19.20;75.20;;;;;;5117301;27;20470;-75
2021/05/16 13:29:58;;;;;;;1.20;0.93;;;19.30;74.10;;;;;;5114026;28;20459;-74
2021/05/16 13:32:24;;;;;;;1.60;1.30;;;19.10;74.40;;;;;;5112863;28;20447;-75
2021/05/16 13:34:59;;;;;;;1.40;1.10;;;18.90;77.90;;;;;;5114019;28;20843;-74
2021/05/16 13:37:26;;;;;;;1.30;1.10;;;18.80;76.80;;;;;;5114116;28;21053;-74
2021/05/16 13:39:53;;;;;;;1.20;1.00;;;18.70;76.80;;;;;;5114068;28;20470;-75
2021/05/16 13:42:19;;;;;;;1.20;1.00;;;18.70;77.40;;;;;;5111384;28;20451;-74
2021/05/16 13:44:47;;;;;;;1.20;1.20;;;18.50;78.60;;;;;;5113923;28;20459;-71
2021/05/16 13:47:14;;;;;;;1.20;1.10;;;18.50;80.10;;;;;;5110241;28;20462;-74
2021/05/16 13:49:41;;;;;;;1.20;1.00;;;18.50;78.60;;;;;;5113739;28;20451;-74
2021/05/16 13:52:08;;;;;;;1.20;1.00;;;18.40;78.40;;;;;;5111555;28;20451;-74
2021/05/16 13:54:34;;;;;;;1.20;1.10;;;18.40;79.60;;;;;;5113475;28;20977;-74
2021/05/16 13:57:01;;;;;;;1.20;1.10;;;18.50;80.90;;;;;;5110266;28;20451;-74
2021/05/16 13:59:28;;;;;;;1.20;1.10;;;18.70;82.50;;;;;;5113813;28;20485;-74
2021/05/16 14:01:56;;;;;;;1.30;1.10;;;18.80;80.30;;;;;;5111511;28;20451;-74
2021/05/16 14:04:23;;;;;;;1.20;1.00;;;18.90;79.40;;;;;;5113499;28;20771;-74
2021/05/16 14:06:49;;;;;;;2.13;1.10;;;19.10;80.10;;;;;;5110901;28;20497;-74
2021/05/16 14:09:16;;;;;;;1.20;1.10;;;18.90;80.60;;;;;;5113368;28;20455;-74
2021/05/16 14:11:43;;;;;;;1.20;1.00;;;18.90;79.10;;;;;;5111012;28;20459;-74
2021/05/16 14:14:10;;;;;;;1.20;1.10;;;18.80;80.60;;;;;;5113310;28;20455;-74
2021/05/16 14:16:39;;;;;;;1.20;1.03;;;18.80;80.60;;;;;;5110890;28;20490;-74
2021/05/16 14:19:06;;;;;;;1.20;1.00;;;18.60;80.90;;;;;;5113259;28;20459;-74
2021/05/16 14:21:32;;;;;;;1.20;1.00;;;18.50;82.90;;;;;;5110952;28;20447;-74
2021/05/16 14:24:00;;;;;;;1.20;1.10;;;18.40;83.00;;;;;;5113169;28;20451;-74
2021/05/16 14:26:28;;;;;;;1.20;1.07;;;18.20;84.60;;;;;;5110776;28;20504;-74
2021/05/16 14:28:54;;;;;;;1.20;1.10;;;18.10;84.60;;;;;;5113050;28;20465;-74
2021/05/16 14:31:21;;;;;;;1.20;1.10;;;17.90;86.90;;;;;;5110519;28;20488;-75
2021/05/16 14:33:47;;;;;;;1.20;1.00;;;17.70;89.80;;;;;;5112941;27;20492;-74
2021/05/16 14:36:14;;;;;;;1.20;1.00;;;17.50;91.40;;;;;;5110661;28;20575;-74
2021/05/16 14:38:40;;;;;;;1.20;1.00;;;17.50;93.10;;;;;;5111925;28;20511;-74
2021/05/16 14:41:07;;;;;;;1.70;1.03;;;17.40;91.00;;;;;;5110281;28;20462;-74
2021/05/16 14:43:37;;;;;;;1.20;1.00;;;17.00;91.40;;;;;;5112639;28;20575;-74
2021/05/16 14:46:04;;;;;;;1.20;1.00;;;16.80;91.40;;;;;;5108880;28;20447;-74
2021/05/16 14:48:31;;;;;;;1.20;1.00;;;16.70;89.60;;;;;;5112802;28;20459;-74
2021/05/16 14:51:05;;;;;;;1.20;1.00;;;16.80;87.20;;;;;;5109770;28;20483;-74
2021/05/16 14:53:31;;;;;;;1.20;1.00;;;16.90;89.10;;;;;;5112581;27;20454;-74
2021/05/16 14:55:58;;;;;;;1.20;1.00;;;17.00;87.00;;;;;;5109792;28;20487;-74
2021/05/16 14:58:24;;;;;;;1.20;0.90;;;17.10;85.70;;;;;;5112580;28;20459;-74
2021/05/16 15:00:52;;;;;;;1.20;1.03;;;17.20;86.70;;;;;;5110003;28;20970;-75
2021/05/16 15:03:18;;;;;;;1.43;1.20;;;17.20;86.60;;;;;;5112429;28;20443;-74
2021/05/16 15:05:45;;;;;;;1.20;1.00;;;17.10;87.40;;;;;;5109823;28;20866;-74
2021/05/16 15:08:11;;;;;;;1.20;1.00;;;17.20;87.00;;;;;;5112294;28;20520;-74
2021/05/16 15:10:37;;;;;;;1.20;0.90;;;17.20;87.40;;;;;;5109915;28;20527;-74
2021/05/16 15:13:04;;;;;;;1.20;1.00;;;17.10;87.20;;;;;;5112218;28;20455;-74
2021/05/16 15:15:30;;;;;;;1.20;1.10;;;17.10;86.10;;;;;;5109681;28;20482;-74
2021/05/16 15:17:58;;;;;;;1.20;1.10;;;17.60;87.20;;;;;;5112404;28;20458;-74
2021/05/16 15:20:25;;;;;;;1.20;1.00;;;18.20;87.10;;;;;;5109726;28;20462;-74
2021/05/16 15:22:51;;;;;;;1.20;1.10;;;18.50;84.90;;;;;;5112026;27;20891;-74
2021/05/16 15:25:17;;;;;;;1.20;1.00;;;18.70;83.50;;;;;;5109577;28;20447;-74
2021/05/16 15:27:44;;;;;;;1.20;1.10;;;18.90;84.90;;;;;;5111861;28;20451;-74
2021/05/16 15:30:12;;;;;;;1.20;1.00;;;18.70;84.50;;;;;;5109467;28;20462;-75
2021/05/16 15:32:39;;;;;;;1.20;1.10;;;18.40;84.10;;;;;;5111819;28;20466;-74
2021/05/16 15:35:07;;;;;;;1.20;1.03;;;18.30;85.70;;;;;;5111725;28;20485;-74
2021/05/16 15:37:33;;;;;;;1.20;1.10;;;18.30;86.50;;;;;;5109570;28;20447;-74
2021/05/16 15:40:00;;;;;;;1.20;1.10;;;18.30;86.90;;;;;;5111787;28;20451;-75
2021/05/16 15:42:27;;;;;;;1.20;1.00;;;18.50;87.30;;;;;;5108925;28;20455;-75
2021/05/16 15:44:53;;;;;;;1.20;1.00;;;18.90;86.40;;;;;;5111594;28;20827;-76
2021/05/16 15:47:20;;;;;;;1.73;1.37;;;19.30;83.90;;;;;;5109054;28;20967;-76
2021/05/16 15:49:46;;;;;;;1.20;1.00;;;19.70;84.10;;;;;;5111333;28;20798;-77
2021/05/16 15:52:13;;;;;;;1.20;1.10;;;20.00;84.30;;;;;;5109193;28;20979;-76
2021/05/16 15:54:40;;;;;;;1.20;1.00;;;20.40;81.70;;;;;;5111962;28;20459;-75
2021/05/16 15:57:07;;;;;;;1.20;1.00;;;20.20;79.60;;;;;;5109153;28;20455;-76
2021/05/16 15:59:33;;;;;;;1.40;1.17;;;20.00;80.10;;;;;;5111817;28;20463;-76
2021/05/16 16:02:00;;;;;;;1.20;1.00;;;19.80;80.60;;;;;;5109456;28;20531;-75
2021/05/16 16:04:27;;;;;;;1.20;1.10;;;19.90;80.90;;;;;;5112287;28;20530;-76
2021/05/16 16:06:53;;;;;;;1.20;1.00;;;20.10;80.00;;;;;;5109739;28;20803;-76
2021/05/16 16:09:21;;;;;;;1.20;1.10;;;20.10;79.10;;;;;;5111955;28;20459;-76
2021/05/16 16:11:48;;;;;;;1.20;1.17;;;20.20;79.90;;;;;;5109181;28;20455;-76
2021/05/16 16:14:14;;;;;;;1.20;1.10;;;20.20;79.40;;;;;;5110965;28;20481;-76
2021/05/16 16:16:42;;;;;;;1.20;1.00;;;20.00;78.50;;;;;;5109136;28;20502;-76
2021/05/16 16:19:09;;;;;;;1.20;1.00;;;20.10;79.00;;;;;;5112050;28;20534;-76
2021/05/16 16:21:35;;;;;;;1.20;1.10;;;20.10;79.00;;;;;;5109338;28;20455;-76
2021/05/16 16:24:02;;;;;;;1.20;1.10;;;19.80;79.30;;;;;;5112045;28;20521;-75
2021/05/16 16:26:29;;;;;;;1.20;1.00;;;19.10;80.70;;;;;;5108927;28;20462;-76
2021/05/16 16:28:56;;;;;;;1.20;1.10;;;18.90;82.80;;;;;;5111966;28;20922;-75
2021/05/16 16:31:22;;;;;;;1.20;1.07;;;19.00;83.00;;;;;;5109221;28;20940;-76
2021/05/16 16:33:49;;;;;;;1.20;1.10;;;18.80;82.80;;;;;;5111807;28;20466;-76
2021/05/16 16:36:15;;;;;;;1.20;1.00;;;18.70;83.40;;;;;;5108744;28;20478;-75
2021/05/16 16:38:42;;;;;;;1.20;1.00;;;18.60;84.10;;;;;;5110968;28;20455;-76
2021/05/16 16:41:09;;;;;;;1.20;1.00;;;18.60;84.30;;;;;;5107401;28;20467;-75
2021/05/16 16:43:37;;;;;;;1.20;1.00;;;18.60;83.80;;;;;;5110144;28;20458;-73
2021/05/16 16:46:04;;;;;;;1.20;1.13;;;18.90;83.30;;;;;;5108049;28;20447;-73
2021/05/16 16:48:35;;;;;;;1.20;1.00;;;19.20;83.30;;;;;;5110827;28;20979;-76